Time;durP1;ratioP1;P1;durP2;ratioP2;P2;SDS_P1;SDS_P2;PMS_P1;PMS_P2;Temp;Humidity;BMP_temperature;BMP_pressure;BME280_temperature;BME280_humidity;BME280_pressure;Samples;Min_cycle;Max_cycle;Signal;HPM_P1;HPM_P2
2021/08/29 00:01:07;;;;;;;9.30;6.10;;;15.00;99.90;;;;;;5067133;28;20261;-71
2021/08/29 00:03:33;;;;;;;11.13;5.73;;;15.00;99.90;;;;;;5073418;28;20561;-71
2021/08/29 00:05:58;;;;;;;6.27;5.43;;;15.00;99.90;;;;;;5072380;28;20253;-71
2021/08/29 00:08:24;;;;;;;7.00;5.43;;;15.00;99.90;;;;;;5072138;28;20198;-71
2021/08/29 00:10:49;;;;;;;9.53;6.40;;;15.00;99.90;;;;;;5073252;28;20178;-71
2021/08/29 00:13:15;;;;;;;7.80;6.00;;;15.00;99.90;;;;;;5073374;28;20225;-71
2021/08/29 00:15:40;;;;;;;9.77;6.50;;;15.00;99.90;;;;;;5073348;28;20213;-71
2021/08/29 00:18:06;;;;;;;6.73;6.03;;;15.00;99.90;;;;;;5073079;28;20214;-71
2021/08/29 00:20:31;;;;;;;8.60;5.43;;;15.00;99.90;;;;;;5072918;28;20181;-71
2021/08/29 00:22:57;;;;;;;6.53;5.63;;;15.00;99.90;;;;;;5073046;28;20283;-71
2021/08/29 00:25:22;;;;;;;10.17;7.57;;;15.00;99.90;;;;;;5073154;28;20166;-71
2021/08/29 00:27:48;;;;;;;8.80;6.30;;;15.00;99.90;;;;;;5059937;28;20176;-71
2021/08/29 00:30:14;;;;;;;7.17;6.07;;;15.00;99.90;;;;;;5058040;28;20186;-71
2021/08/29 00:32:40;;;;;;;12.60;6.80;;;15.00;99.90;;;;;;5072962;28;20166;-71
2021/08/29 00:35:06;;;;;;;7.80;7.00;;;15.10;99.90;;;;;;5073021;28;20240;-71
2021/08/29 00:37:31;;;;;;;9.70;7.17;;;15.00;99.90;;;;;;5072986;28;20870;-71
2021/08/29 00:39:58;;;;;;;8.63;7.70;;;15.10;99.90;;;;;;5072989;28;20455;-71
2021/08/29 00:42:24;;;;;;;9.30;7.50;;;15.10;99.90;;;;;;5072217;28;20252;-71
2021/08/29 00:44:50;;;;;;;10.57;7.50;;;15.10;99.90;;;;;;5072659;28;20910;-71
2021/08/29 00:47:16;;;;;;;9.80;8.20;;;15.10;99.90;;;;;;5072737;28;20178;-71
2021/08/29 00:49:41;;;;;;;10.73;8.67;;;15.10;99.90;;;;;;5072746;28;20455;-71
2021/08/29 00:52:08;;;;;;;11.97;8.90;;;15.10;99.90;;;;;;5072643;28;20189;-71
2021/08/29 00:54:35;;;;;;;10.60;9.10;;;15.10;99.90;;;;;;5072744;28;20158;-71
2021/08/29 00:57:04;;;;;;;14.60;11.20;;;15.00;99.90;;;;;;5072922;28;20506;-71
2021/08/29 00:59:30;;;;;;;13.13;9.50;;;15.00;99.90;;;;;;5072261;28;20941;-71
2021/08/29 01:02:01;;;;;;;12.77;11.43;;;15.00;99.90;;;;;;5070826;28;20475;-71
2021/08/29 01:04:34;;;;;;;12.90;10.20;;;15.00;99.90;;;;;;5072598;28;20496;-71
2021/08/29 01:07:08;;;;;;;13.77;10.33;;;15.00;99.90;;;;;;5072756;28;20401;-71
2021/08/29 01:09:37;;;;;;;14.90;12.40;;;15.00;99.90;;;;;;5072280;28;20937;-71
2021/08/29 01:12:05;;;;;;;14.10;11.80;;;15.00;99.90;;;;;;5071801;28;20451;-71
2021/08/29 01:14:32;;;;;;;17.70;12.27;;;15.00;99.90;;;;;;5072503;28;20447;-71
2021/08/29 01:17:03;;;;;;;17.70;13.23;;;15.00;99.90;;;;;;5072201;28;20566;-71
2021/08/29 01:19:38;;;;;;;14.20;10.97;;;15.00;99.90;;;;;;5072412;28;20477;-71
2021/08/29 01:22:07;;;;;;;15.93;13.30;;;15.00;99.90;;;;;;5069703;28;20480;-71
2021/08/29 01:24:33;;;;;;;16.50;12.53;;;15.00;99.90;;;;;;5072260;28;20512;-71
2021/08/29 01:27:22;;;;;;;19.83;12.93;;;15.00;99.90;;;;;;5072333;28;20401;-71
2021/08/29 01:29:48;;;;;;;13.90;11.83;;;14.90;99.90;;;;;;5072523;28;20403;-71
2021/08/29 01:32:15;;;;;;;15.47;12.00;;;14.90;99.90;;;;;;5071596;28;20903;-71
2021/08/29 01:34:41;;;;;;;16.00;12.07;;;15.00;99.90;;;;;;5072166;28;20264;-71
2021/08/29 01:37:09;;;;;;;15.60;11.27;;;15.00;99.90;;;;;;5072006;28;20467;-71
2021/08/29 01:39:35;;;;;;;12.80;11.40;;;14.90;99.90;;;;;;5072272;28;20398;-71
2021/08/29 01:42:01;;;;;;;15.33;13.47;;;14.90;99.90;;;;;;5071885;28;20458;-71
2021/08/29 01:44:27;;;;;;;15.40;12.33;;;14.90;99.90;;;;;;5072227;28;20434;-71
2021/08/29 01:46:53;;;;;;;13.73;11.13;;;14.90;99.90;;;;;;5072206;28;20316;-71
2021/08/29 01:49:21;;;;;;;13.77;10.80;;;14.90;99.90;;;;;;5072064;28;20515;-71
2021/08/29 01:51:47;;;;;;;11.70;10.07;;;14.90;99.90;;;;;;5070475;28;20948;-71
2021/08/29 01:54:13;;;;;;;11.40;9.70;;;15.00;99.90;;;;;;5072254;28;20425;-71
2021/08/29 01:57:01;;;;;;;13.77;10.43;;;14.90;99.90;;;;;;5071365;28;20278;-71
2021/08/29 01:59:27;;;;;;;12.07;9.33;;;14.90;99.90;;;;;;5068659;28;20301;-71
2021/08/29 02:01:53;;;;;;;13.20;10.43;;;14.90;99.90;;;;;;5066189;28;20463;-72
2021/08/29 02:04:21;;;;;;;14.73;10.60;;;14.90;99.90;;;;;;5072215;28;20405;-72
2021/08/29 02:06:52;;;;;;;14.80;11.40;;;14.90;99.90;;;;;;5072172;28;20480;-72
2021/08/29 02:09:19;;;;;;;12.27;9.80;;;14.90;99.90;;;;;;5071658;28;20416;-72
2021/08/29 02:11:50;;;;;;;14.57;10.60;;;14.90;99.90;;;;;;5071394;28;20561;-72
2021/08/29 02:14:20;;;;;;;13.63;10.43;;;14.90;99.90;;;;;;5071785;28;20405;-72
2021/08/29 02:16:48;;;;;;;13.17;11.20;;;14.90;99.90;;;;;;5072002;28;20745;-72
2021/08/29 02:19:17;;;;;;;15.90;11.10;;;14.90;99.90;;;;;;5071988;28;20789;-72
2021/08/29 02:21:44;;;;;;;20.50;10.57;;;15.00;99.90;;;;;;5069578;28;20835;-72
2021/08/29 02:24:10;;;;;;;13.53;10.30;;;15.00;99.90;;;;;;5071777;28;20399;-72
2021/08/29 02:26:37;;;;;;;14.33;10.70;;;15.00;99.90;;;;;;5071536;28;20424;-72
2021/08/29 02:29:03;;;;;;;14.17;11.30;;;15.00;99.90;;;;;;5071075;28;20166;-72
2021/08/29 02:31:29;;;;;;;14.30;11.60;;;15.00;99.90;;;;;;5056560;28;20422;-72
2021/08/29 02:33:54;;;;;;;13.40;10.87;;;15.00;99.90;;;;;;5055509;28;20160;-72
2021/08/29 02:36:20;;;;;;;15.10;10.60;;;15.00;99.90;;;;;;5055283;28;20724;-72
2021/08/29 02:38:49;;;;;;;11.53;9.70;;;15.00;99.90;;;;;;5059586;28;20584;-71
2021/08/29 02:41:16;;;;;;;13.50;11.40;;;15.00;99.90;;;;;;5074940;28;20435;-71
2021/08/29 02:43:43;;;;;;;21.27;14.07;;;15.00;99.90;;;;;;5074708;28;20460;-71
2021/08/29 02:46:09;;;;;;;16.87;12.10;;;15.00;99.90;;;;;;5075194;28;20386;-71
2021/08/29 02:48:34;;;;;;;21.43;14.30;;;15.00;99.90;;;;;;5075133;28;20390;-71
2021/08/29 02:51:01;;;;;;;19.00;14.13;;;15.00;99.90;;;;;;5074825;28;20546;-71
2021/08/29 02:53:26;;;;;;;16.93;13.80;;;14.90;99.90;;;;;;5074941;28;20233;-71
2021/08/29 02:55:56;;;;;;;21.00;15.87;;;14.90;99.90;;;;;;5075859;28;20397;-73
2021/08/29 02:58:23;;;;;;;20.70;15.23;;;14.90;99.90;;;;;;5074521;28;20159;-73
2021/08/29 03:00:48;;;;;;;21.97;16.77;;;15.00;99.90;;;;;;5072867;28;20437;-73
2021/08/29 03:03:14;;;;;;;22.90;16.73;;;14.90;99.90;;;;;;5074532;28;20460;-73
2021/08/29 03:05:40;;;;;;;22.73;16.50;;;14.90;99.90;;;;;;5075396;28;20167;-73
2021/08/29 03:08:06;;;;;;;23.27;16.90;;;15.00;99.90;;;;;;5075034;28;20213;-73
2021/08/29 03:10:32;;;;;;;21.10;16.40;;;15.00;99.90;;;;;;5072559;28;20170;-73
2021/08/29 03:13:00;;;;;;;20.40;16.67;;;15.00;99.90;;;;;;5055247;28;20409;-73
2021/08/29 03:15:28;;;;;;;20.90;17.10;;;15.00;99.90;;;;;;5056561;28;20955;-73
2021/08/29 03:17:54;;;;;;;21.83;17.57;;;14.90;99.90;;;;;;5074382;28;20440;-73
2021/08/29 03:20:20;;;;;;;19.20;15.60;;;14.90;99.90;;;;;;5075471;28;20434;-73
2021/08/29 03:22:46;;;;;;;20.90;15.63;;;14.90;99.90;;;;;;5074379;28;20512;-73
2021/08/29 03:25:12;;;;;;;23.30;17.07;;;14.90;99.90;;;;;;5066259;28;20460;-73
2021/08/29 03:27:38;;;;;;;22.97;17.77;;;14.90;99.90;;;;;;5054751;28;20182;-73
2021/08/29 03:30:04;;;;;;;21.50;17.17;;;15.00;99.90;;;;;;5057594;28;20855;-73
2021/08/29 03:32:29;;;;;;;22.40;17.53;;;14.90;99.90;;;;;;5073218;28;20427;-73
2021/08/29 03:35:01;;;;;;;22.17;18.47;;;15.00;99.90;;;;;;5068746;28;20463;-73
2021/08/29 03:37:27;;;;;;;21.37;16.90;;;14.90;99.90;;;;;;5054291;28;20156;-73
2021/08/29 03:39:52;;;;;;;21.67;17.17;;;14.90;99.90;;;;;;5054360;28;20478;-73
2021/08/29 03:42:20;;;;;;;24.03;17.37;;;14.90;99.90;;;;;;5055182;28;20545;-73
2021/08/29 03:44:46;;;;;;;25.57;18.10;;;14.90;99.90;;;;;;5057976;28;20199;-73
2021/08/29 03:47:12;;;;;;;22.13;17.93;;;14.90;99.90;;;;;;5073888;28;20422;-73
2021/08/29 03:49:38;;;;;;;26.30;18.67;;;14.90;99.90;;;;;;5074945;28;20420;-73
2021/08/29 03:52:04;;;;;;;24.27;18.00;;;14.90;99.90;;;;;;5075237;28;20443;-73
2021/08/29 03:54:31;;;;;;;27.33;19.10;;;14.90;99.90;;;;;;5074991;28;20197;-73
2021/08/29 03:56:57;;;;;;;23.57;18.63;;;14.90;99.90;;;;;;5074698;28;20483;-73
2021/08/29 03:59:22;;;;;;;21.87;17.20;;;14.90;99.90;;;;;;5074401;28;20477;-73
2021/08/29 04:01:48;;;;;;;22.00;16.80;;;14.90;99.90;;;;;;5074022;28;20245;-73
2021/08/29 04:04:14;;;;;;;22.30;18.43;;;14.90;99.90;;;;;;5075034;28;20155;-73
2021/08/29 04:06:40;;;;;;;22.50;18.00;;;14.90;99.90;;;;;;5073667;28;20429;-73
2021/08/29 04:09:07;;;;;;;20.90;16.90;;;14.90;99.90;;;;;;5074625;28;20517;-73
2021/08/29 04:11:34;;;;;;;23.90;18.30;;;14.90;99.90;;;;;;5074722;28;20402;-73
2021/08/29 04:14:01;;;;;;;21.47;17.80;;;14.90;99.90;;;;;;5075106;28;20505;-73
2021/08/29 04:16:27;;;;;;;32.93;19.47;;;14.90;99.90;;;;;;5074172;28;20474;-73
2021/08/29 04:18:53;;;;;;;21.93;17.90;;;14.90;99.90;;;;;;5075188;28;20419;-73
2021/08/29 04:21:24;;;;;;;23.33;17.43;;;14.90;99.90;;;;;;5074544;28;20433;-73
2021/08/29 04:23:50;;;;;;;26.43;19.87;;;14.90;99.90;;;;;;5074765;28;20562;-73
2021/08/29 04:26:16;;;;;;;21.50;18.23;;;14.90;99.90;;;;;;5065443;28;20433;-73
2021/08/29 04:28:42;;;;;;;25.67;18.50;;;14.90;99.90;;;;;;5057767;28;20980;-73
2021/08/29 04:31:10;;;;;;;22.20;17.80;;;14.90;99.90;;;;;;5063803;28;20433;-73
2021/08/29 04:33:36;;;;;;;24.17;18.80;;;14.90;99.90;;;;;;5075156;28;20190;-73
2021/08/29 04:36:04;;;;;;;26.03;20.67;;;14.90;99.90;;;;;;5075314;28;20389;-73
2021/08/29 04:38:30;;;;;;;24.67;18.40;;;15.00;99.90;;;;;;5074257;28;20408;-73
2021/08/29 04:40:55;;;;;;;25.73;19.20;;;15.00;99.90;;;;;;5074331;28;20523;-73
2021/08/29 04:43:21;;;;;;;25.30;19.53;;;15.00;99.90;;;;;;5074661;28;20198;-73
2021/08/29 04:45:47;;;;;;;27.33;20.87;;;15.00;99.90;;;;;;5074833;28;20158;-73
2021/08/29 04:48:12;;;;;;;29.10;21.60;;;15.00;99.90;;;;;;5074930;28;20484;-73
2021/08/29 04:50:38;;;;;;;29.90;18.50;;;15.00;99.90;;;;;;5075013;28;20262;-73
2021/08/29 04:53:04;;;;;;;27.23;19.00;;;15.00;99.90;;;;;;5074180;28;20176;-73
2021/08/29 04:55:30;;;;;;;21.87;18.00;;;15.00;99.90;;;;;;5074587;28;20297;-73
2021/08/29 04:57:56;;;;;;;25.63;17.43;;;15.00;99.90;;;;;;5074503;28;20191;-73
2021/08/29 05:00:22;;;;;;;24.43;18.47;;;15.00;99.90;;;;;;5062629;28;21125;-72
2021/08/29 05:02:47;;;;;;;23.80;17.57;;;15.00;99.90;;;;;;5074518;28;20255;-73
2021/08/29 05:05:13;;;;;;;24.13;17.70;;;15.00;99.90;;;;;;5074329;28;20152;-73
2021/08/29 05:07:38;;;;;;;22.43;16.03;;;15.00;99.90;;;;;;5074848;28;20173;-73
2021/08/29 05:10:05;;;;;;;24.63;18.40;;;15.00;99.90;;;;;;5073874;28;20633;-73
2021/08/29 05:12:30;;;;;;;23.20;16.50;;;15.00;99.90;;;;;;5074448;28;20212;-73
2021/08/29 05:14:56;;;;;;;19.27;17.20;;;15.00;99.90;;;;;;5074932;28;20416;-73
2021/08/29 05:17:21;;;;;;;21.17;15.17;;;15.00;99.90;;;;;;5074930;28;20178;-73
2021/08/29 05:19:47;;;;;;;20.83;15.83;;;15.00;99.90;;;;;;5074119;28;20533;-73
2021/08/29 05:22:12;;;;;;;20.73;15.03;;;15.10;99.90;;;;;;5068100;28;20207;-73
2021/08/29 05:24:38;;;;;;;20.73;15.30;;;15.10;99.90;;;;;;5053974;28;20517;-73
2021/08/29 05:27:04;;;;;;;23.27;16.07;;;15.10;99.90;;;;;;5073491;28;20528;-73
2021/08/29 05:29:29;;;;;;;16.57;13.77;;;15.10;99.90;;;;;;5073503;28;20194;-73
2021/08/29 05:31:55;;;;;;;19.67;14.37;;;15.10;99.90;;;;;;5074434;28;20421;-73
2021/08/29 05:34:21;;;;;;;25.00;16.50;;;15.10;99.90;;;;;;5074336;28;20548;-73
2021/08/29 05:36:47;;;;;;;18.07;14.67;;;15.10;99.90;;;;;;5074042;28;20743;-73
2021/08/29 05:39:12;;;;;;;22.57;15.90;;;15.20;99.90;;;;;;5073213;28;20481;-73
2021/08/29 05:41:38;;;;;;;15.70;13.50;;;15.10;99.90;;;;;;5073737;28;20151;-73
2021/08/29 05:44:03;;;;;;;18.03;13.70;;;15.10;99.90;;;;;;5073760;28;20172;-73
2021/08/29 05:46:29;;;;;;;21.97;15.37;;;15.10;99.90;;;;;;5073965;28;20163;-73
2021/08/29 05:48:55;;;;;;;15.50;13.43;;;15.10;99.90;;;;;;5073486;28;20202;-73
2021/08/29 05:51:20;;;;;;;21.60;15.57;;;15.10;99.90;;;;;;5072952;28;20187;-73
2021/08/29 05:53:46;;;;;;;18.40;14.50;;;15.10;99.90;;;;;;5073662;28;20635;-73
2021/08/29 05:56:12;;;;;;;18.40;14.20;;;15.10;99.90;;;;;;5073264;28;20172;-73
2021/08/29 05:58:38;;;;;;;17.93;14.13;;;15.10;99.90;;;;;;5073160;28;20680;-73
2021/08/29 06:01:03;;;;;;;17.77;14.23;;;15.10;99.90;;;;;;5074045;28;20558;-73
2021/08/29 06:03:31;;;;;;;19.33;14.30;;;15.10;99.90;;;;;;5073877;28;20286;-73
2021/08/29 06:05:56;;;;;;;18.73;16.20;;;15.10;99.90;;;;;;5076756;28;20223;-73
2021/08/29 06:08:22;;;;;;;19.80;16.70;;;15.20;99.90;;;;;;5069292;28;20430;-73
2021/08/29 06:10:48;;;;;;;17.67;14.57;;;15.20;99.90;;;;;;5057205;28;20181;-73
2021/08/29 06:13:13;;;;;;;19.00;15.97;;;15.20;99.90;;;;;;5057221;28;20164;-73
2021/08/29 06:15:39;;;;;;;15.47;13.87;;;15.20;99.90;;;;;;5057408;28;20156;-73
2021/08/29 06:18:04;;;;;;;18.83;13.80;;;15.20;99.90;;;;;;5057650;28;20186;-73
2021/08/29 06:20:30;;;;;;;17.00;13.90;;;15.20;99.90;;;;;;5058229;28;20169;-73
2021/08/29 06:22:56;;;;;;;17.33;14.70;;;15.30;99.90;;;;;;5074409;28;20294;-73
2021/08/29 06:25:24;;;;;;;17.30;13.33;;;15.20;99.90;;;;;;5075955;28;20182;-73
2021/08/29 06:27:50;;;;;;;17.80;13.80;;;15.30;99.90;;;;;;5076673;28;20172;-73
2021/08/29 06:30:15;;;;;;;16.30;12.90;;;15.30;99.90;;;;;;5075935;28;20482;-73
2021/08/29 06:32:41;;;;;;;18.63;14.93;;;15.30;99.90;;;;;;5075526;28;20235;-73
2021/08/29 06:35:07;;;;;;;20.90;13.93;;;15.30;99.90;;;;;;5076794;28;20262;-73
2021/08/29 06:37:32;;;;;;;17.77;13.63;;;15.30;99.90;;;;;;5076936;28;20171;-73
2021/08/29 06:39:58;;;;;;;20.83;12.83;;;15.30;99.90;;;;;;5076710;28;20534;-73
2021/08/29 06:42:24;;;;;;;16.00;12.57;;;15.30;99.90;;;;;;5059225;28;20200;-73
2021/08/29 06:44:49;;;;;;;15.03;13.53;;;15.40;99.90;;;;;;5057368;28;20213;-73
2021/08/29 06:47:15;;;;;;;14.27;12.77;;;15.40;99.90;;;;;;5056784;28;20523;-73
2021/08/29 06:49:40;;;;;;;12.80;11.40;;;15.40;99.90;;;;;;5056591;28;20512;-73
2021/08/29 06:52:06;;;;;;;16.50;13.50;;;15.40;99.90;;;;;;5071406;28;20176;-73
2021/08/29 06:54:31;;;;;;;14.43;12.93;;;15.50;99.90;;;;;;5076338;28;20167;-73
2021/08/29 06:56:57;;;;;;;13.20;11.73;;;15.50;99.90;;;;;;5077244;28;20183;-73
2021/08/29 06:59:22;;;;;;;18.63;12.17;;;15.50;99.90;;;;;;5067111;28;20211;-73
2021/08/29 07:01:48;;;;;;;14.37;11.60;;;15.50;99.90;;;;;;5069394;28;20187;-73
2021/08/29 07:04:14;;;;;;;15.60;12.80;;;15.50;99.90;;;;;;5075035;28;20160;-73
2021/08/29 07:06:39;;;;;;;17.53;11.93;;;15.50;99.90;;;;;;5074930;28;20238;-73
2021/08/29 07:09:05;;;;;;;16.40;12.30;;;15.60;99.90;;;;;;5075080;28;20183;-73
2021/08/29 07:11:30;;;;;;;16.53;12.00;;;15.60;99.90;;;;;;5074645;28;20240;-73
2021/08/29 07:13:56;;;;;;;13.47;12.07;;;15.50;99.90;;;;;;5075411;28;20191;-73
2021/08/29 07:16:21;;;;;;;14.13;11.77;;;15.60;99.90;;;;;;5074313;28;20720;-73
2021/08/29 07:18:47;;;;;;;12.10;10.80;;;15.50;99.90;;;;;;5074801;28;20178;-73
2021/08/29 07:21:13;;;;;;;14.03;12.63;;;15.50;99.90;;;;;;5074267;28;20228;-73
2021/08/29 07:23:39;;;;;;;18.70;12.93;;;15.40;99.90;;;;;;5074537;28;20289;-73
2021/08/29 07:26:04;;;;;;;15.47;12.20;;;15.40;99.90;;;;;;5074500;28;20510;-73
2021/08/29 07:28:30;;;;;;;17.17;12.63;;;15.40;99.90;;;;;;5060905;28;20186;-73
2021/08/29 07:30:56;;;;;;;15.03;11.97;;;15.40;99.90;;;;;;5062233;28;20666;-73
2021/08/29 07:33:21;;;;;;;14.23;11.73;;;15.50;99.90;;;;;;5074302;28;20660;-73
2021/08/29 07:35:47;;;;;;;16.33;12.30;;;15.40;99.90;;;;;;5074282;28;20156;-73
2021/08/29 07:38:13;;;;;;;15.17;13.03;;;15.40;99.90;;;;;;5073824;28;20198;-73
2021/08/29 07:40:38;;;;;;;33.73;17.27;;;15.40;99.90;;;;;;5074802;28;20178;-73
2021/08/29 07:43:04;;;;;;;17.80;13.20;;;15.40;99.90;;;;;;5073775;28;20205;-73
2021/08/29 07:45:30;;;;;;;15.40;12.40;;;15.40;99.90;;;;;;5074156;28;20232;-73
2021/08/29 07:47:55;;;;;;;15.70;11.33;;;15.40;99.90;;;;;;5073899;28;20178;-74
2021/08/29 07:50:23;;;;;;;13.07;11.67;;;15.40;99.90;;;;;;5073972;28;20645;-73
2021/08/29 07:52:49;;;;;;;14.20;10.90;;;15.40;99.90;;;;;;5073816;28;20187;-73
2021/08/29 07:55:15;;;;;;;12.97;9.77;;;15.40;99.90;;;;;;5074649;28;20390;-74
2021/08/29 07:57:41;;;;;;;17.17;9.93;;;15.40;99.90;;;;;;5073822;28;20429;-74
2021/08/29 08:00:07;;;;;;;9.93;8.93;;;15.40;99.90;;;;;;5072959;28;20218;-73
2021/08/29 08:02:33;;;;;;;10.90;9.77;;;15.40;99.90;;;;;;5069751;28;20206;-73
2021/08/29 08:04:58;;;;;;;13.23;9.50;;;15.40;99.90;;;;;;5073543;28;20414;-73
2021/08/29 08:07:24;;;;;;;15.43;9.77;;;15.40;99.90;;;;;;5073281;28;20178;-74
2021/08/29 08:09:49;;;;;;;13.40;9.20;;;15.40;99.90;;;;;;5074399;28;20175;-73
2021/08/29 08:12:15;;;;;;;10.43;8.53;;;15.40;99.90;;;;;;5073435;28;20259;-73
2021/08/29 08:14:40;;;;;;;11.07;8.13;;;15.40;99.90;;;;;;5073875;28;20179;-73
2021/08/29 08:17:07;;;;;;;13.43;8.90;;;15.40;99.90;;;;;;5073768;28;20166;-73
2021/08/29 08:19:33;;;;;;;10.50;9.13;;;15.40;99.90;;;;;;5073265;28;20186;-73
2021/08/29 08:21:59;;;;;;;9.07;8.17;;;15.40;99.90;;;;;;5072592;28;21087;-73
2021/08/29 08:24:24;;;;;;;9.20;7.93;;;15.40;99.90;;;;;;5073527;28;20463;-73
2021/08/29 08:26:50;;;;;;;7.73;6.93;;;15.50;99.90;;;;;;5072699;28;20617;-73
2021/08/29 08:29:15;;;;;;;6.60;5.90;;;15.50;99.90;;;;;;5063169;28;20187;-73
2021/08/29 08:31:41;;;;;;;6.10;5.17;;;15.50;99.90;;;;;;5068954;28;20566;-73
2021/08/29 08:34:06;;;;;;;7.40;5.03;;;15.50;99.90;;;;;;5073190;28;20515;-73
2021/08/29 08:36:34;;;;;;;7.20;5.97;;;15.60;99.90;;;;;;5073748;28;20154;-73
2021/08/29 08:39:00;;;;;;;6.73;4.40;;;15.60;99.90;;;;;;5073669;28;20198;-73
2021/08/29 08:41:27;;;;;;;4.70;4.30;;;15.60;99.90;;;;;;5072223;28;20420;-73
2021/08/29 08:43:53;;;;;;;4.17;3.77;;;15.60;99.90;;;;;;5072951;28;20195;-73
2021/08/29 08:46:22;;;;;;;4.90;4.30;;;15.60;99.90;;;;;;5073030;28;20386;-73
2021/08/29 08:48:50;;;;;;;6.73;4.87;;;15.70;99.90;;;;;;5073093;28;20386;-73
2021/08/29 08:51:23;;;;;;;5.30;3.77;;;15.70;99.90;;;;;;5071857;28;20429;-73
2021/08/29 08:53:52;;;;;;;6.83;3.87;;;15.70;99.90;;;;;;5072898;28;20397;-73
2021/08/29 08:56:19;;;;;;;5.50;4.20;;;15.70;99.90;;;;;;5073021;28;20930;-73
2021/08/29 08:58:45;;;;;;;4.30;3.90;;;15.70;99.90;;;;;;5056935;28;20456;-73
2021/08/29 09:01:12;;;;;;;4.40;3.83;;;15.70;99.90;;;;;;5071127;28;20520;-73
2021/08/29 09:03:38;;;;;;;3.60;3.30;;;15.70;99.90;;;;;;5072537;28;20821;-73
2021/08/29 09:06:06;;;;;;;5.53;3.23;;;15.70;99.90;;;;;;5074499;28;20410;-73
2021/08/29 09:08:34;;;;;;;2.83;2.40;;;15.70;99.90;;;;;;5073236;28;20396;-73
2021/08/29 09:11:00;;;;;;;3.00;1.90;;;15.80;99.90;;;;;;5071572;28;20413;-73
2021/08/29 09:13:26;;;;;;;2.73;2.00;;;15.90;99.90;;;;;;5072345;28;20421;-73
2021/08/29 09:16:13;;;;;;;2.73;1.63;;;15.90;99.90;;;;;;5072915;28;20894;-73
2021/08/29 09:18:47;;;;;;;2.63;1.90;;;15.90;99.90;;;;;;5072262;28;20247;-73
2021/08/29 09:21:23;;;;;;;1.33;1.20;;;15.90;99.90;;;;;;5071939;28;20942;-74
2021/08/29 09:23:50;;;;;;;3.10;1.30;;;15.90;99.90;;;;;;5072105;28;20491;-73
2021/08/29 09:26:18;;;;;;;2.93;2.07;;;16.00;99.90;;;;;;5071737;28;21002;-73
2021/08/29 09:28:45;;;;;;;2.43;1.63;;;16.00;99.90;;;;;;5072439;28;20930;-73
2021/08/29 09:31:11;;;;;;;2.30;1.43;;;16.10;99.90;;;;;;5070818;28;20487;-73
2021/08/29 09:33:37;;;;;;;1.77;1.40;;;16.10;99.90;;;;;;5072618;28;20398;-73
2021/08/29 09:36:03;;;;;;;1.80;1.27;;;16.20;99.90;;;;;;5070525;28;20176;-73
2021/08/29 09:38:37;;;;;;;2.43;1.60;;;16.20;99.90;;;;;;5073833;28;20505;-73
2021/08/29 09:41:03;;;;;;;2.50;1.30;;;16.20;99.90;;;;;;5075801;28;20182;-73
2021/08/29 09:43:37;;;;;;;1.50;1.40;;;16.20;99.90;;;;;;5076296;28;20827;-73
2021/08/29 09:46:06;;;;;;;1.93;1.40;;;16.20;99.90;;;;;;5076552;28;20159;-73
2021/08/29 09:48:32;;;;;;;1.20;1.10;;;16.20;99.90;;;;;;5076368;28;20980;-73
2021/08/29 09:50:58;;;;;;;1.73;1.13;;;16.10;99.90;;;;;;5075729;28;20422;-73
2021/08/29 09:53:24;;;;;;;1.80;1.20;;;16.10;99.90;;;;;;5075732;28;20647;-73
2021/08/29 09:55:49;;;;;;;2.30;0.80;;;16.10;99.90;;;;;;5075722;28;20267;-73
2021/08/29 09:58:25;;;;;;;1.30;1.00;;;16.10;99.90;;;;;;5075983;28;20547;-73
2021/08/29 10:01:09;;;;;;;1.47;0.90;;;16.10;99.90;;;;;;5075379;28;20265;-73
2021/08/29 10:03:36;;;;;;;1.30;1.20;;;16.10;99.90;;;;;;5075874;28;20457;-73
2021/08/29 10:06:26;;;;;;;1.17;1.07;;;16.20;99.90;;;;;;5076066;28;20413;-73
2021/08/29 10:08:54;;;;;;;1.03;1.00;;;16.20;99.90;;;;;;5075326;28;20390;-73
2021/08/29 10:11:21;;;;;;;1.70;1.50;;;16.20;99.90;;;;;;5074934;28;20876;-73
2021/08/29 10:13:48;;;;;;;2.30;1.50;;;16.20;99.90;;;;;;5075918;28;20394;-73
2021/08/29 10:16:14;;;;;;;1.20;1.10;;;16.20;99.90;;;;;;5076052;28;20401;-73
2021/08/29 10:18:43;;;;;;;1.33;1.23;;;16.20;99.90;;;;;;5075910;28;20837;-73
2021/08/29 10:21:11;;;;;;;1.73;1.30;;;16.30;99.90;;;;;;5074766;28;20418;-73
2021/08/29 10:23:39;;;;;;;1.10;1.00;;;16.30;99.90;;;;;;5074976;28;20461;-73
2021/08/29 10:26:07;;;;;;;1.37;1.20;;;16.30;99.90;;;;;;5074367;28;20471;-73
2021/08/29 10:28:38;;;;;;;1.83;1.50;;;16.30;99.90;;;;;;5075981;28;20397;-73
2021/08/29 10:31:08;;;;;;;1.30;1.20;;;16.30;99.90;;;;;;5069662;28;20468;-73
2021/08/29 10:33:35;;;;;;;2.27;1.70;;;16.30;99.90;;;;;;5055498;28;20402;-74
2021/08/29 10:36:01;;;;;;;1.40;1.30;;;16.30;99.90;;;;;;5055580;28;20444;-73
2021/08/29 10:38:27;;;;;;;1.70;1.43;;;16.30;99.90;;;;;;5065826;28;20501;-73
2021/08/29 10:40:53;;;;;;;1.10;1.00;;;16.30;99.90;;;;;;5068449;28;20517;-73
2021/08/29 10:43:19;;;;;;;2.30;1.53;;;16.20;99.90;;;;;;5055281;28;20192;-73
2021/08/29 10:45:45;;;;;;;2.10;1.00;;;16.20;99.90;;;;;;5055190;28;20168;-73
2021/08/29 10:48:15;;;;;;;1.47;1.10;;;16.20;99.90;;;;;;5055563;28;20890;-73
2021/08/29 10:50:44;;;;;;;2.10;1.57;;;16.20;99.90;;;;;;5058720;28;20171;-73
2021/08/29 10:53:27;;;;;;;1.60;1.40;;;16.10;99.90;;;;;;5075089;28;20455;-73
2021/08/29 10:59:21;;;;;;;1.40;1.30;;;16.10;99.90;;;;;;5064309;28;20613;-73
2021/08/29 11:01:48;;;;;;;1.73;1.63;;;16.10;99.90;;;;;;5046502;28;20430;-74
2021/08/29 11:07:02;;;;;;;2.00;1.40;;;16.10;99.90;;;;;;5070433;28;20504;-74
2021/08/29 11:14:52;;;;;;;1.80;1.70;;;16.20;99.90;;;;;;5105809;27;20643;-74
2021/08/29 11:17:21;;;;;;;2.60;1.90;;;16.40;99.90;;;;;;5090197;28;20415;-74
2021/08/29 11:19:48;;;;;;;3.17;2.23;;;16.40;99.90;;;;;;5090516;28;20388;-74
2021/08/29 11:22:17;;;;;;;3.27;2.40;;;16.50;99.90;;;;;;5089136;28;20757;-74
2021/08/29 11:25:07;;;;;;;2.30;2.00;;;16.50;99.90;;;;;;5090066;28;20387;-74
2021/08/29 11:30:15;;;;;;;3.57;2.70;;;16.60;99.90;;;;;;5062440;28;20527;-74
2021/08/29 11:40:46;;;;;;;5.17;4.67;;;16.60;99.90;;;;;;5070716;28;20512;-73
2021/08/29 11:43:15;;;;;;;6.00;5.47;;;16.80;99.90;;;;;;5029985;28;20403;-74
2021/08/29 11:45:40;;;;;;;7.60;6.67;;;16.80;99.90;;;;;;5033925;28;20414;-74
2021/08/29 11:48:07;;;;;;;6.13;5.50;;;16.70;99.90;;;;;;5050080;28;20533;-74
2021/08/29 11:50:33;;;;;;;6.07;5.47;;;16.70;99.90;;;;;;5050676;28;20262;-74
2021/08/29 11:52:59;;;;;;;7.37;5.23;;;16.60;99.90;;;;;;5049773;28;20486;-74
2021/08/29 11:55:25;;;;;;;7.33;5.63;;;16.70;99.90;;;;;;5049712;28;20466;-74
2021/08/29 11:57:53;;;;;;;6.67;5.97;;;16.60;99.90;;;;;;5049395;28;20210;-74
2021/08/29 12:00:23;;;;;;;7.07;6.40;;;16.60;99.90;;;;;;5042813;28;20262;-74
2021/08/29 12:02:52;;;;;;;6.70;6.00;;;16.70;99.90;;;;;;5049473;28;20507;-74
2021/08/29 12:05:18;;;;;;;7.50;6.73;;;16.70;99.90;;;;;;5050183;28;20410;-74
2021/08/29 12:10:23;;;;;;;6.73;6.13;;;16.70;99.90;;;;;;5079121;28;20550;-74
2021/08/29 12:12:50;;;;;;;5.80;5.30;;;16.90;99.90;;;;;;5069648;28;20907;-74
2021/08/29 12:15:16;;;;;;;5.47;4.97;;;16.90;99.90;;;;;;5070633;28;20390;-74
2021/08/29 12:17:43;;;;;;;6.50;5.90;;;17.00;99.90;;;;;;5070373;28;20393;-74
2021/08/29 12:20:10;;;;;;;6.00;5.40;;;17.00;99.90;;;;;;5061043;28;20854;-74
2021/08/29 12:22:36;;;;;;;4.73;4.30;;;17.00;99.90;;;;;;5050831;28;20521;-74
2021/08/29 12:25:02;;;;;;;5.23;4.73;;;16.90;99.90;;;;;;5060568;28;20421;-74
2021/08/29 12:27:28;;;;;;;6.20;5.70;;;16.90;99.90;;;;;;5070127;28;20422;-74
2021/08/29 12:29:57;;;;;;;5.17;4.77;;;16.80;99.90;;;;;;5062852;28;20450;-74
2021/08/29 12:32:25;;;;;;;5.43;5.00;;;16.80;99.90;;;;;;5070000;28;20636;-74
2021/08/29 12:37:32;;;;;;;6.00;5.50;;;16.80;99.90;;;;;;5061130;28;20541;-74
2021/08/29 12:40:06;;;;;;;5.57;3.80;;;16.90;99.90;;;;;;5069984;28;20387;-74
2021/08/29 12:42:35;;;;;;;4.07;3.40;;;16.90;99.90;;;;;;5049878;28;20415;-74
2021/08/29 12:45:08;;;;;;;3.43;3.13;;;16.90;99.90;;;;;;5049956;28;20880;-74
2021/08/29 12:47:34;;;;;;;3.60;3.27;;;16.90;99.90;;;;;;5050399;28;20411;-74
2021/08/29 12:50:03;;;;;;;4.07;3.67;;;16.90;99.90;;;;;;5050214;28;20470;-74
2021/08/29 12:52:37;;;;;;;3.10;2.80;;;16.90;99.90;;;;;;5044182;28;20771;-74
2021/08/29 12:55:08;;;;;;;3.20;2.90;;;16.90;99.90;;;;;;5050850;28;20418;-74
2021/08/29 12:57:34;;;;;;;3.17;2.90;;;16.90;99.90;;;;;;5049700;28;20428;-74
2021/08/29 13:00:03;;;;;;;3.13;2.83;;;16.90;99.90;;;;;;5035170;28;20975;-74
2021/08/29 13:02:38;;;;;;;3.10;2.80;;;16.90;99.90;;;;;;5048647;28;20672;-74